createdAt,value
2022-12-04T00:01:27.570Z,0.40
2022-12-04T00:04:04.160Z,0.40
2022-12-04T00:06:30.887Z,0.40
2022-12-04T00:08:57.814Z,0.50
2022-12-04T00:11:28.335Z,0.50
2022-12-04T00:13:58.225Z,0.40
2022-12-04T00:16:29.762Z,0.40
2022-12-04T00:18:57.302Z,0.30
2022-12-04T00:21:24.941Z,0.20
2022-12-04T00:23:52.471Z,0.30
2022-12-04T00:26:28.371Z,0.20
2022-12-04T00:28:57.369Z,0.10
2022-12-04T00:31:26.829Z,0.00
2022-12-04T00:33:54.547Z,0.00
2022-12-04T00:36:23.935Z,0.10
2022-12-04T00:38:51.222Z,0.20
2022-12-04T00:41:20.797Z,0.30
2022-12-04T00:43:47.597Z,0.30
2022-12-04T00:46:15.499Z,0.30
2022-12-04T00:48:43.277Z,0.40
2022-12-04T00:51:16.623Z,0.40
2022-12-04T00:53:44.071Z,0.30
2022-12-04T00:56:14.796Z,0.00
2022-12-04T00:58:42.754Z,0.00
2022-12-04T01:01:12.404Z,0.00
2022-12-04T01:03:40.496Z,0.10
2022-12-04T01:06:08.259Z,0.20
2022-12-04T01:08:35.417Z,0.30
2022-12-04T01:11:06.891Z,0.30
2022-12-04T01:13:34.123Z,0.30
2022-12-04T01:16:01.240Z,0.30
2022-12-04T01:18:28.410Z,0.30
2022-12-04T01:20:57.842Z,0.40
2022-12-04T01:23:24.719Z,0.40
2022-12-04T01:25:57.606Z,0.50
2022-12-04T01:28:25.389Z,0.30
2022-12-04T01:31:13.198Z,0.10
2022-12-04T01:33:44.256Z,0.10
2022-12-04T01:36:14.106Z,0.10
2022-12-04T01:38:49.068Z,0.00
2022-12-04T01:41:21.507Z,-0.10
2022-12-04T01:44:18.828Z,-0.10
2022-12-04T01:46:52.966Z,-0.10
2022-12-04T01:49:46.122Z,-0.10
2022-12-04T01:52:25.988Z,0.00
2022-12-04T01:55:01.607Z,0.00
2022-12-04T01:57:35.106Z,0.10
2022-12-04T02:00:26.326Z,0.10
2022-12-04T02:02:53.190Z,0.10
2022-12-04T02:05:21.786Z,0.10
2022-12-04T02:07:52.566Z,0.10
2022-12-04T02:13:16.299Z,0.00
2022-12-04T02:15:56.764Z,0.00
2022-12-04T02:18:29.855Z,0.00
2022-12-04T02:21:07.521Z,0.00
2022-12-04T02:24:00.187Z,0.00
2022-12-04T02:26:38.005Z,0.00
2022-12-04T02:29:18.920Z,0.00
2022-12-04T02:32:19.794Z,0.00
2022-12-04T02:35:15.840Z,0.00
2022-12-04T02:37:50.708Z,0.00
2022-12-04T02:40:40.065Z,-0.10
2022-12-04T02:43:09.887Z,-0.10
2022-12-04T02:46:01.425Z,-0.10
2022-12-04T02:48:38.158Z,-0.10
2022-12-04T02:51:10.065Z,-0.10
2022-12-04T02:53:44.227Z,-0.10
2022-12-04T02:59:41.393Z,-0.10
2022-12-04T03:02:37.950Z,-0.10
2022-12-04T03:05:10.445Z,-0.10
2022-12-04T03:07:59.230Z,0.00
2022-12-04T03:10:35.212Z,0.00
2022-12-04T03:13:21.924Z,-0.10
2022-12-04T03:15:58.302Z,0.00
2022-12-04T03:18:50.033Z,-0.10
2022-12-04T03:21:23.643Z,-0.10
2022-12-04T03:23:55.131Z,0.00
2022-12-04T03:26:45.652Z,0.00
2022-12-04T03:29:42.632Z,0.00
2022-12-04T03:32:33.411Z,0.10
2022-12-04T03:35:21.394Z,0.10
2022-12-04T03:38:17.549Z,0.20
2022-12-04T03:40:59.582Z,0.30
2022-12-04T03:44:01.066Z,0.30
2022-12-04T03:46:33.961Z,0.40
2022-12-04T03:49:24.387Z,0.30
2022-12-04T03:52:07.726Z,0.20
2022-12-04T03:54:49.325Z,0.00
2022-12-04T03:57:41.608Z,0.00
2022-12-04T04:00:15.959Z,-0.10
2022-12-04T04:02:55.507Z,0.00
2022-12-04T04:05:23.995Z,0.20
2022-12-04T04:08:20.374Z,0.20
2022-12-04T04:10:48.532Z,0.20
2022-12-04T04:13:39.121Z,0.20
2022-12-04T04:16:27.378Z,0.20
2022-12-04T04:19:17.948Z,0.20
2022-12-04T04:22:05.374Z,0.30
2022-12-04T04:24:56.549Z,0.40
2022-12-04T04:27:23.291Z,0.30
2022-12-04T04:29:52.899Z,0.30
2022-12-04T04:32:24.608Z,0.30
2022-12-04T04:34:59.934Z,0.30
2022-12-04T04:37:27.263Z,0.20
2022-12-04T04:40:09.520Z,0.20
2022-12-04T04:42:56.696Z,0.10
2022-12-04T04:45:44.632Z,0.20
2022-12-04T04:48:19.318Z,0.30
2022-12-04T04:50:46.803Z,0.40
2022-12-04T04:53:23.029Z,0.40
2022-12-04T04:55:59.544Z,0.20
2022-12-04T04:58:26.515Z,0.10
2022-12-04T05:01:09.912Z,0.10
2022-12-04T05:03:36.799Z,0.20
2022-12-04T05:06:04.224Z,0.10
2022-12-04T05:08:31.222Z,0.10
2022-12-04T05:13:42.562Z,0.10
2022-12-04T05:16:15.675Z,0.10
2022-12-04T05:19:03.180Z,0.10
2022-12-04T05:21:33.913Z,0.10
2022-12-04T05:24:01.201Z,0.00
2022-12-04T05:26:30.877Z,0.10
2022-12-04T05:29:00.179Z,0.20
2022-12-04T05:31:29.534Z,0.40
2022-12-04T05:33:57.232Z,0.30
2022-12-04T05:36:24.107Z,0.20
2022-12-04T05:38:51.374Z,0.20
2022-12-04T05:41:18.608Z,0.10
2022-12-04T05:43:45.335Z,0.10
2022-12-04T05:46:12.362Z,0.10
2022-12-04T05:48:45.363Z,0.20
2022-12-04T05:51:12.489Z,0.20
2022-12-04T05:53:39.296Z,0.10
2022-12-04T05:56:07.628Z,0.10
2022-12-04T05:58:39.006Z,0.10
2022-12-04T06:01:18.078Z,0.10
2022-12-04T06:03:45.623Z,0.00
2022-12-04T06:06:22.109Z,0.20
2022-12-04T06:08:50.853Z,0.20
2022-12-04T06:11:25.846Z,0.20
2022-12-04T06:13:53.854Z,0.20
2022-12-04T06:16:26.452Z,0.20
2022-12-04T06:18:56.374Z,0.30
2022-12-04T06:21:30.613Z,0.20
2022-12-04T06:24:06.942Z,0.20
2022-12-04T06:26:33.902Z,0.20
2022-12-04T06:29:04.201Z,0.20
2022-12-04T06:31:31.224Z,0.20
2022-12-04T06:33:58.790Z,0.20
2022-12-04T06:36:28.591Z,0.10
2022-12-04T06:39:02.134Z,0.10
2022-12-04T06:41:30.366Z,0.10
2022-12-04T06:43:57.769Z,0.10
2022-12-04T06:46:27.104Z,0.10
2022-12-04T06:48:56.098Z,0.10
2022-12-04T06:51:28.784Z,0.10
2022-12-04T06:53:56.260Z,0.10
2022-12-04T06:56:25.595Z,0.10
2022-12-04T06:58:55.001Z,0.10
2022-12-04T07:01:33.314Z,0.10
2022-12-04T07:04:03.387Z,0.20
2022-12-04T07:06:37.897Z,0.30
2022-12-04T07:09:08.187Z,0.30
2022-12-04T07:11:35.370Z,0.20
2022-12-04T07:14:04.973Z,0.30
2022-12-04T07:16:35.438Z,0.30
2022-12-04T07:19:07.316Z,0.40
2022-12-04T07:21:34.668Z,0.50
2022-12-04T07:24:01.972Z,0.40
2022-12-04T07:26:30.252Z,0.40
2022-12-04T07:28:57.929Z,0.50
2022-12-04T07:31:26.284Z,0.50
2022-12-04T07:33:54.393Z,0.50
2022-12-04T07:36:22.638Z,0.50
2022-12-04T07:38:49.835Z,0.60
2022-12-04T07:41:17.246Z,0.50
2022-12-04T07:43:44.249Z,0.50
2022-12-04T07:46:14.297Z,0.50
2022-12-04T07:48:41.301Z,0.40
2022-12-04T07:51:12.150Z,0.40
2022-12-04T07:53:40.067Z,0.20
2022-12-04T07:56:07.940Z,0.30
2022-12-04T07:58:35.519Z,0.20
2022-12-04T08:01:20.259Z,0.30
2022-12-04T08:03:49.938Z,0.20
2022-12-04T08:06:18.577Z,0.30
2022-12-04T08:08:46.109Z,0.30
2022-12-04T08:11:19.959Z,0.30
2022-12-04T08:13:47.083Z,0.30
2022-12-04T08:16:15.139Z,0.30
2022-12-04T08:18:46.604Z,0.30
2022-12-04T08:21:17.175Z,0.30
2022-12-04T08:23:44.639Z,0.40
2022-12-04T08:26:15.238Z,0.40
2022-12-04T08:28:42.597Z,0.40
2022-12-04T08:31:19.836Z,0.50
2022-12-04T08:33:48.409Z,0.30
2022-12-04T08:36:19.436Z,0.30
2022-12-04T08:38:49.508Z,0.30
2022-12-04T08:41:19.762Z,0.40
2022-12-04T08:43:46.611Z,0.40
2022-12-04T08:46:16.056Z,0.40
2022-12-04T08:48:43.542Z,0.40
2022-12-04T08:51:20.388Z,0.40
2022-12-04T08:53:47.566Z,0.40
2022-12-04T08:56:22.397Z,0.40
2022-12-04T08:58:49.582Z,0.50
2022-12-04T09:01:17.180Z,0.50
2022-12-04T09:03:47.901Z,0.40
2022-12-04T09:06:15.934Z,0.40
2022-12-04T09:08:43.433Z,0.40
2022-12-04T09:11:23.470Z,0.40
2022-12-04T09:13:52.308Z,0.40
2022-12-04T09:16:21.874Z,0.40
2022-12-04T09:18:48.758Z,0.50
2022-12-04T09:21:17.616Z,0.60
2022-12-04T09:23:44.754Z,0.60
2022-12-04T09:26:26.262Z,0.60
2022-12-04T09:28:54.740Z,0.60
2022-12-04T09:31:22.472Z,0.70
2022-12-04T09:33:49.319Z,0.60
2022-12-04T09:36:16.460Z,0.70
2022-12-04T09:38:44.678Z,0.70
2022-12-04T09:41:27.707Z,0.70
2022-12-04T09:44:08.376Z,0.70
2022-12-04T09:46:50.943Z,0.70
2022-12-04T09:49:47.797Z,0.70
2022-12-04T09:53:03.391Z,0.90
2022-12-04T09:55:56.104Z,1.10
2022-12-04T09:58:28.950Z,1.00
2022-12-04T10:00:57.479Z,1.10
2022-12-04T10:03:28.249Z,1.30
2022-12-04T10:06:12.100Z,1.40
2022-12-04T10:08:44.689Z,1.50
2022-12-04T10:11:21.482Z,1.50
2022-12-04T10:14:03.655Z,1.40
2022-12-04T10:16:46.216Z,1.20
2022-12-04T10:19:37.403Z,1.10
2022-12-04T10:22:33.633Z,0.80
2022-12-04T10:25:17.082Z,0.80
2022-12-04T10:28:09.186Z,0.80
2022-12-04T10:30:40.110Z,0.80
2022-12-04T10:33:12.839Z,0.90
2022-12-04T10:35:43.936Z,0.80
2022-12-04T10:38:59.152Z,0.80
2022-12-04T10:41:31.834Z,0.90
2022-12-04T10:43:58.509Z,0.90
2022-12-04T10:46:27.008Z,0.90
2022-12-04T10:48:59.899Z,1.00
2022-12-04T10:51:27.084Z,1.10
2022-12-04T10:53:56.755Z,1.10
2022-12-04T10:56:25.913Z,0.90
2022-12-04T10:59:01.539Z,0.80
2022-12-04T11:01:31.566Z,0.70
2022-12-04T11:04:07.693Z,0.70
2022-12-04T11:06:35.549Z,0.80
2022-12-04T11:09:03.646Z,0.70
2022-12-04T11:11:33.915Z,0.60
2022-12-04T11:14:24.678Z,0.50
2022-12-04T11:17:05.254Z,0.60
2022-12-04T11:19:36.179Z,0.60
2022-12-04T11:22:21.088Z,0.60
2022-12-04T11:25:15.564Z,0.60
2022-12-04T11:27:47.085Z,0.80
2022-12-04T11:30:26.130Z,0.90
2022-12-04T11:32:54.139Z,0.90
